createdAt,value
2019-02-05T00:04:24.257Z,15.48
2019-02-05T00:09:32.343Z,17.30
2019-02-05T00:14:40.573Z,16.53
2019-02-05T00:19:48.707Z,15.29
2019-02-05T00:24:56.917Z,15.68
2019-02-05T00:30:05.068Z,17.31
2019-02-05T00:35:13.340Z,15.34
2019-02-05T00:40:21.508Z,16.38
2019-02-05T00:45:29.888Z,14.69
2019-02-05T00:50:37.946Z,15.05
2019-02-05T00:55:46.189Z,14.99
2019-02-05T01:00:54.201Z,18.21
2019-02-05T01:06:02.364Z,17.78
2019-02-05T01:11:10.454Z,19.04
2019-02-05T01:16:18.829Z,17.38
2019-02-05T01:21:26.845Z,16.77
2019-02-05T01:26:35.196Z,17.85
2019-02-05T01:31:43.300Z,17.64
2019-02-05T01:36:52.055Z,17.89
2019-02-05T01:42:00.159Z,20.49
2019-02-05T01:47:08.345Z,19.37
2019-02-05T01:52:16.411Z,22.34
2019-02-05T01:57:24.571Z,18.48
2019-02-05T02:02:32.745Z,19.71
2019-02-05T02:07:40.870Z,20.17
2019-02-05T02:12:48.997Z,18.50
2019-02-05T02:17:57.152Z,19.07
2019-02-05T02:23:05.152Z,19.92
2019-02-05T02:28:13.349Z,19.80
2019-02-05T02:33:21.510Z,21.15
2019-02-05T02:38:29.657Z,20.78
2019-02-05T02:43:37.716Z,21.25
2019-02-05T02:48:46.036Z,20.93
2019-02-05T02:53:54.192Z,20.62
2019-02-05T02:59:02.368Z,22.20
2019-02-05T03:04:10.539Z,23.04
2019-02-05T03:09:18.796Z,22.66
2019-02-05T03:14:26.897Z,23.29
2019-02-05T03:19:35.136Z,25.60
2019-02-05T03:24:43.249Z,25.15
2019-02-05T03:29:51.484Z,25.70
2019-02-05T03:34:59.535Z,25.36
2019-02-05T03:40:07.946Z,27.35
2019-02-05T03:45:15.937Z,26.61
2019-02-05T03:50:24.194Z,25.99
2019-02-05T03:55:32.699Z,27.19
2019-02-05T04:00:41.025Z,27.81
2019-02-05T04:05:49.146Z,31.31
2019-02-05T04:10:57.221Z,29.00
2019-02-05T04:16:06.155Z,29.15
2019-02-05T04:21:14.493Z,31.28
2019-02-05T04:26:23.013Z,31.08
2019-02-05T04:31:31.154Z,29.95
2019-02-05T04:36:39.426Z,32.03
2019-02-05T04:41:47.662Z,32.42
2019-02-05T04:46:56.429Z,31.72
2019-02-05T04:52:04.702Z,30.77
2019-02-05T04:57:12.787Z,33.33
2019-02-05T05:02:20.981Z,35.53
2019-02-05T05:07:29.253Z,31.04
2019-02-05T05:12:37.514Z,33.75
2019-02-05T05:17:45.491Z,31.49
2019-02-05T05:22:53.785Z,31.47
2019-02-05T05:28:09.693Z,33.51
2019-02-05T05:33:09.979Z,33.33
2019-02-05T05:38:18.017Z,31.46
2019-02-05T05:43:26.185Z,32.53
2019-02-05T05:48:33.606Z,32.13
2019-02-05T05:53:42.022Z,31.23
2019-02-05T05:58:50.006Z,31.66
2019-02-05T06:03:58.337Z,31.25
2019-02-05T06:09:06.549Z,30.97
2019-02-05T06:14:15.202Z,33.30
2019-02-05T06:19:23.328Z,33.68
2019-02-05T06:24:31.640Z,35.69
2019-02-05T06:29:39.867Z,34.29
2019-02-05T06:34:48.086Z,35.54
2019-02-05T06:39:56.164Z,33.26
2019-02-05T06:45:04.928Z,39.33
2019-02-05T06:50:13.832Z,35.97
2019-02-05T06:55:22.184Z,37.92
2019-02-05T07:00:30.332Z,39.57
2019-02-05T07:05:39.341Z,38.15
2019-02-05T07:10:47.625Z,34.47
2019-02-05T07:15:55.840Z,37.59
2019-02-05T07:21:04.113Z,36.44
2019-02-05T07:31:20.327Z,34.67
2019-02-05T07:36:29.574Z,34.21
2019-02-05T07:41:38.097Z,33.35
2019-02-05T07:46:38.577Z,33.64
2019-02-05T07:51:40.039Z,32.80
2019-02-05T07:56:48.647Z,32.85
2019-02-05T08:01:56.963Z,34.71
2019-02-05T08:07:07.661Z,35.54
2019-02-05T08:12:14.287Z,31.78
2019-02-05T08:17:23.002Z,34.89
2019-02-05T08:22:32.245Z,35.62
2019-02-05T08:27:33.398Z,34.53
2019-02-05T08:32:42.039Z,34.18
2019-02-05T08:37:50.687Z,39.16
2019-02-05T08:42:59.214Z,35.33
2019-02-05T08:48:08.089Z,38.26
2019-02-05T08:53:16.693Z,38.73
2019-02-05T08:58:31.053Z,40.67
2019-02-05T09:03:33.346Z,41.87
2019-02-05T09:08:42.383Z,39.06
2019-02-05T09:13:51.258Z,40.58
2019-02-05T09:18:59.735Z,40.22
2019-02-05T09:24:01.064Z,39.51
2019-02-05T09:29:09.618Z,39.76
2019-02-05T09:34:18.530Z,38.75
2019-02-05T09:39:27.283Z,36.87
2019-02-05T09:44:36.395Z,39.72
2019-02-05T09:49:44.965Z,40.43
2019-02-05T09:54:52.146Z,37.11
2019-02-05T10:00:01.356Z,34.07
2019-02-05T10:05:10.808Z,35.27
2019-02-05T10:10:19.596Z,38.72
2019-02-05T10:15:40.270Z,37.01
2019-02-05T10:20:28.582Z,36.72
2019-02-05T10:25:36.893Z,36.09
2019-02-05T10:30:45.351Z,33.94
2019-02-05T10:35:53.518Z,29.59
2019-02-05T10:41:02.001Z,30.72
2019-02-05T10:46:10.487Z,31.18
2019-02-05T10:51:19.094Z,27.95
2019-02-05T10:56:27.398Z,26.20
2019-02-05T11:01:37.298Z,28.01
2019-02-05T11:06:45.462Z,24.94
2019-02-05T11:11:53.809Z,26.52
2019-02-05T11:17:02.126Z,27.38
2019-02-05T11:22:10.506Z,26.00
2019-02-05T11:27:18.736Z,26.17
2019-02-05T11:32:27.178Z,27.93
2019-02-05T11:37:35.461Z,28.26
2019-02-05T11:42:43.879Z,28.52
2019-02-05T11:47:52.133Z,28.91
2019-02-05T11:53:00.574Z,28.72
2019-02-05T11:58:08.823Z,28.03
2019-02-05T12:03:17.212Z,28.76
2019-02-05T12:08:25.511Z,31.24
2019-02-05T12:13:33.804Z,28.97
2019-02-05T12:18:42.057Z,31.40
2019-02-05T12:23:50.479Z,31.19
2019-02-05T12:28:58.634Z,31.16
2019-02-05T12:34:07.078Z,29.71
2019-02-05T12:39:15.288Z,32.42
2019-02-05T12:44:23.630Z,33.78
2019-02-05T12:49:31.813Z,30.51
2019-02-05T12:54:40.473Z,30.84
2019-02-05T12:59:48.847Z,28.98
2019-02-05T13:04:57.620Z,30.85
2019-02-05T13:10:05.943Z,28.56
2019-02-05T13:15:13.726Z,31.72
2019-02-05T13:20:20.462Z,31.24
2019-02-05T13:25:29.081Z,28.75
2019-02-05T13:30:38.341Z,30.16
2019-02-05T13:35:47.342Z,29.45
2019-02-05T13:40:55.741Z,27.70
2019-02-05T13:46:04.721Z,30.45
2019-02-05T13:51:13.139Z,33.43
2019-02-05T13:56:21.786Z,27.87
2019-02-05T14:01:32.061Z,29.07
2019-02-05T14:06:30.478Z,25.39
2019-02-05T14:11:38.744Z,27.23
2019-02-05T14:16:47.139Z,26.50
2019-02-05T14:21:55.239Z,27.74
2019-02-05T14:27:03.738Z,27.81
2019-02-05T14:32:11.854Z,28.04
2019-02-05T14:37:20.617Z,28.49
2019-02-05T14:42:28.806Z,26.65
2019-02-05T14:47:37.763Z,31.11
2019-02-05T14:52:46.030Z,27.65
2019-02-05T14:57:54.346Z,30.51
2019-02-05T15:03:02.659Z,29.13
2019-02-05T15:08:10.440Z,29.10
2019-02-05T15:13:18.824Z,28.40
2019-02-05T15:18:27.489Z,26.39
2019-02-05T15:23:35.867Z,29.96
2019-02-05T15:28:44.352Z,31.49
2019-02-05T15:33:52.682Z,26.23
2019-02-05T15:39:01.133Z,26.95
2019-02-05T15:44:09.465Z,28.16
2019-02-05T15:49:18.077Z,28.01
2019-02-05T15:54:26.393Z,27.33
2019-02-05T15:59:35.185Z,29.63
2019-02-05T16:04:43.871Z,26.97
2019-02-05T16:09:52.968Z,29.64
2019-02-05T16:15:01.127Z,28.59
2019-02-05T16:20:09.622Z,29.50
2019-02-05T16:25:17.825Z,31.79
2019-02-05T16:30:26.039Z,34.29
2019-02-05T16:35:34.479Z,30.96
2019-02-05T16:40:42.930Z,30.76
2019-02-05T16:45:52.043Z,32.53
2019-02-05T16:51:00.414Z,34.18
2019-02-05T16:56:09.022Z,43.17
2019-02-05T17:01:17.630Z,40.24
2019-02-05T17:06:26.402Z,38.58
2019-02-05T17:11:34.927Z,37.01
2019-02-05T17:16:42.874Z,38.72
2019-02-05T17:21:51.358Z,41.91
2019-02-05T17:26:59.685Z,39.03
2019-02-05T17:32:08.112Z,42.17
2019-02-05T17:37:16.554Z,38.05
2019-02-05T17:42:24.925Z,35.70
2019-02-05T17:47:33.329Z,40.33
2019-02-05T17:52:41.667Z,39.93
2019-02-05T17:57:50.034Z,45.50
2019-02-05T18:02:58.595Z,45.98
2019-02-05T18:08:07.894Z,45.73
2019-02-05T18:13:23.198Z,45.65
2019-02-05T18:18:21.601Z,45.23
2019-02-05T18:23:29.938Z,47.19
2019-02-05T18:28:38.282Z,50.58
2019-02-05T18:33:45.094Z,51.56
2019-02-05T18:38:53.778Z,60.82
2019-02-05T18:44:02.850Z,58.32
2019-02-05T18:49:11.910Z,66.47
2019-02-05T18:54:20.340Z,59.02
2019-02-05T18:59:28.795Z,56.00
2019-02-05T19:04:37.106Z,56.73
2019-02-05T19:09:45.286Z,58.33
2019-02-05T19:14:53.896Z,56.53
2019-02-05T19:20:02.192Z,62.79
2019-02-05T19:25:10.586Z,65.83
2019-02-05T19:30:18.877Z,59.10
2019-02-05T19:35:27.499Z,60.35
2019-02-05T19:40:35.778Z,58.88
2019-02-05T19:45:44.605Z,63.60
2019-02-05T19:50:52.817Z,62.20
2019-02-05T19:56:01.585Z,62.84
2019-02-05T20:01:09.261Z,62.80
2019-02-05T20:06:17.509Z,60.94
2019-02-05T20:11:25.691Z,58.39
2019-02-05T20:16:34.608Z,61.06
2019-02-05T20:21:42.862Z,65.34
2019-02-05T20:26:51.285Z,61.94
2019-02-05T20:31:59.546Z,63.46
2019-02-05T20:37:07.965Z,58.14
2019-02-05T20:42:16.169Z,62.79
2019-02-05T20:47:23.945Z,60.62
2019-02-05T20:52:32.254Z,60.20
2019-02-05T20:57:40.666Z,58.99
2019-02-05T21:02:48.599Z,56.11
2019-02-05T21:07:56.834Z,62.09
2019-02-05T21:13:04.979Z,57.40
2019-02-05T21:18:13.196Z,62.70
2019-02-05T21:23:21.298Z,60.88
2019-02-05T21:28:29.526Z,57.83
2019-02-05T21:33:37.690Z,58.88
2019-02-05T21:38:46.138Z,64.41
2019-02-05T21:43:54.256Z,62.49
2019-02-05T21:49:02.605Z,64.88
2019-02-05T21:54:10.747Z,64.13
2019-02-05T21:59:19.213Z,61.97
2019-02-05T22:04:28.264Z,61.98
2019-02-05T22:09:34.980Z,61.26
2019-02-05T22:14:43.049Z,59.90
2019-02-05T22:19:51.358Z,63.96
2019-02-05T22:24:59.637Z,64.24
2019-02-05T22:30:07.813Z,64.22
2019-02-05T22:35:16.266Z,66.38
2019-02-05T22:40:24.628Z,63.86
2019-02-05T22:45:32.701Z,63.35
2019-02-05T22:50:41.121Z,64.69
2019-02-05T22:55:50.649Z,70.50
2019-02-05T23:00:58.878Z,65.22
2019-02-05T23:06:07.049Z,68.68
2019-02-05T23:11:15.345Z,68.15
2019-02-05T23:16:23.488Z,62.41
2019-02-05T23:21:31.705Z,62.07
2019-02-05T23:26:39.866Z,57.58
2019-02-05T23:31:48.032Z,66.60
2019-02-05T23:36:56.092Z,60.87
2019-02-05T23:42:05.053Z,58.06
2019-02-05T23:47:13.166Z,56.59
2019-02-05T23:52:21.412Z,58.93
2019-02-05T23:57:29.533Z,61.98
